Time;durP1;ratioP1;P1;durP2;ratioP2;P2;SDS_P1;SDS_P2;PMS_P1;PMS_P2;Temp;Humidity;BMP_temperature;BMP_pressure;BME280_temperature;BME280_humidity;BME280_pressure;Samples;Min_cycle;Max_cycle;Signal;HPM_P1;HPM_P2
2022/06/19 00:01:02;;;;;;;13.18;1.92;;;17.20;99.90;;;;;;7402539;19;20040;-85
2022/06/19 00:03:37;;;;;;;6.13;1.70;;;17.30;99.90;;;;;;7399063;19;20031;-85
2022/06/19 00:06:07;;;;;;;9.50;2.50;;;17.00;99.80;;;;;;7398562;19;20014;-83
2022/06/19 00:08:36;;;;;;;11.88;2.15;;;17.20;99.30;;;;;;7400308;19;20018;-84
2022/06/19 00:11:07;;;;;;;13.48;2.20;;;17.10;99.70;;;;;;7399063;19;20014;-86
2022/06/19 00:13:37;;;;;;;12.43;2.53;;;17.10;99.90;;;;;;7401211;19;20394;-85
2022/06/19 00:16:07;;;;;;;11.27;2.45;;;17.20;99.90;;;;;;7397185;19;20035;-87
2022/06/19 00:18:40;;;;;;;11.73;2.55;;;17.20;99.90;;;;;;7398170;19;20007;-86
2022/06/19 00:21:11;;;;;;;11.88;2.80;;;17.00;99.90;;;;;;7403686;19;20014;-86
2022/06/19 00:23:41;;;;;;;9.18;2.40;;;17.00;99.90;;;;;;7398692;19;20015;-86
2022/06/19 00:26:11;;;;;;;13.20;2.33;;;17.00;99.90;;;;;;7398579;19;20503;-86
2022/06/19 00:28:41;;;;;;;12.07;2.47;;;17.00;99.90;;;;;;7398743;19;20036;-86
2022/06/19 00:31:11;;;;;;;10.32;2.38;;;16.80;99.90;;;;;;7401749;19;20382;-87
2022/06/19 00:33:43;;;;;;;14.45;2.38;;;16.90;99.90;;;;;;7398637;19;20039;-86
2022/06/19 00:36:13;;;;;;;8.07;1.92;;;16.90;99.90;;;;;;7397350;19;20540;-86
2022/06/19 00:38:42;;;;;;;9.32;1.95;;;16.90;99.90;;;;;;7399281;19;20035;-86
2022/06/19 00:41:12;;;;;;;8.52;1.98;;;16.80;99.90;;;;;;7397173;19;20035;-85
2022/06/19 00:43:58;;;;;;;11.20;2.17;;;16.90;99.90;;;;;;7396669;19;20483;-86
2022/06/19 00:46:45;;;;;;;12.18;2.20;;;17.00;99.90;;;;;;7396368;19;20014;-86
2022/06/19 00:49:20;;;;;;;14.93;2.10;;;16.80;99.90;;;;;;7397043;19;20006;-86
2022/06/19 00:51:55;;;;;;;9.32;1.90;;;16.60;99.90;;;;;;7397586;19;20014;-85
2022/06/19 00:54:26;;;;;;;13.85;2.33;;;16.80;99.90;;;;;;7396949;19;20018;-86
2022/06/19 00:56:56;;;;;;;9.65;2.05;;;16.80;99.90;;;;;;7399381;19;20010;-86
2022/06/19 00:59:26;;;;;;;11.35;2.30;;;16.70;99.90;;;;;;7398680;19;20022;-86
2022/06/19 01:01:55;;;;;;;9.73;2.00;;;16.60;99.90;;;;;;7398557;19;20375;-85
2022/06/19 01:04:32;;;;;;;9.85;2.10;;;16.60;99.90;;;;;;7398583;19;20047;-85
2022/06/19 01:07:02;;;;;;;9.10;2.10;;;16.60;99.90;;;;;;7396270;19;20115;-86
2022/06/19 01:09:31;;;;;;;10.75;2.65;;;16.70;99.90;;;;;;7399152;19;20416;-86
2022/06/19 01:12:04;;;;;;;9.10;2.22;;;16.50;99.90;;;;;;7395939;19;20003;-86
2022/06/19 01:14:34;;;;;;;13.32;2.40;;;16.80;99.90;;;;;;7396597;19;20015;-85
2022/06/19 01:17:05;;;;;;;10.30;1.83;;;16.60;99.90;;;;;;7394519;19;20365;-85
2022/06/19 01:19:41;;;;;;;14.95;2.30;;;16.60;99.90;;;;;;7395579;19;20360;-84
2022/06/19 01:22:21;;;;;;;11.77;2.10;;;16.70;99.90;;;;;;7400849;19;20476;-86
2022/06/19 01:25:14;;;;;;;9.57;2.35;;;16.70;99.90;;;;;;7395635;19;20040;-87
2022/06/19 01:30:32;;;;;;;10.43;1.80;;;16.60;99.90;;;;;;7395570;19;20025;-86
2022/06/19 01:33:06;;;;;;;10.68;2.08;;;16.60;99.90;;;;;;7395447;19;20011;-86
2022/06/19 01:35:41;;;;;;;9.32;1.98;;;16.70;99.90;;;;;;7394991;19;20487;-85
2022/06/19 01:38:13;;;;;;;10.68;2.00;;;16.60;99.90;;;;;;7397364;19;20043;-85
2022/06/19 01:40:48;;;;;;;9.93;1.73;;;16.60;99.90;;;;;;7394917;19;20011;-85
2022/06/19 01:43:18;;;;;;;8.32;2.10;;;16.50;99.90;;;;;;7394762;19;20610;-86
2022/06/19 01:45:52;;;;;;;12.75;2.40;;;16.40;99.90;;;;;;7393498;19;20040;-85
2022/06/19 01:48:23;;;;;;;9.27;2.08;;;16.50;99.90;;;;;;7394754;19;20433;-86
2022/06/19 01:50:53;;;;;;;6.50;1.80;;;16.60;99.90;;;;;;7398733;19;20018;-86
2022/06/19 01:53:27;;;;;;;9.95;2.00;;;16.40;99.90;;;;;;7402022;19;20011;-85
2022/06/19 01:56:00;;;;;;;11.93;2.50;;;16.30;99.90;;;;;;7405748;19;20460;-86
2022/06/19 01:58:34;;;;;;;13.20;2.10;;;16.30;99.90;;;;;;7402685;19;20006;-85
2022/06/19 02:01:05;;;;;;;12.10;1.90;;;16.20;99.90;;;;;;7405666;19;20014;-84
2022/06/19 02:03:40;;;;;;;10.82;2.25;;;16.20;99.90;;;;;;7402367;19;20007;-86
2022/06/19 02:06:12;;;;;;;10.30;2.10;;;16.10;99.90;;;;;;7402492;19;20011;-84
2022/06/19 02:08:42;;;;;;;9.82;1.75;;;16.10;99.90;;;;;;7403218;19;20007;-86
2022/06/19 02:11:17;;;;;;;11.95;2.67;;;16.20;99.90;;;;;;7401384;19;20371;-86
2022/06/19 02:13:48;;;;;;;19.08;2.97;;;16.00;99.90;;;;;;7401700;19;20036;-86
2022/06/19 02:16:24;;;;;;;15.60;2.45;;;15.80;99.90;;;;;;7400386;19;20044;-86
2022/06/19 02:18:56;;;;;;;10.88;2.42;;;15.90;99.90;;;;;;7401405;19;20491;-85
2022/06/19 02:21:37;;;;;;;15.77;2.67;;;16.00;99.90;;;;;;7401045;19;20371;-87
2022/06/19 02:24:09;;;;;;;11.73;2.60;;;15.60;99.90;;;;;;7401747;19;20015;-86
2022/06/19 02:26:43;;;;;;;12.43;2.20;;;15.90;99.90;;;;;;7400405;19;20048;-86
2022/06/19 02:29:16;;;;;;;15.45;3.13;;;15.80;99.90;;;;;;7403694;19;20047;-85
2022/06/19 02:31:49;;;;;;;13.82;2.28;;;15.80;99.90;;;;;;7400914;19;20011;-87
2022/06/19 02:34:24;;;;;;;14.85;3.25;;;15.70;99.90;;;;;;7401035;19;20018;-86
2022/06/19 02:36:57;;;;;;;10.85;2.75;;;15.80;99.90;;;;;;7399364;19;20047;-86
2022/06/19 02:39:34;;;;;;;18.85;3.17;;;15.70;99.90;;;;;;7401511;19;20015;-86
2022/06/19 02:42:26;;;;;;;11.20;2.40;;;15.70;99.90;;;;;;7400365;19;20360;-86
2022/06/19 02:45:01;;;;;;;12.02;2.20;;;15.70;99.90;;;;;;7400186;19;20043;-86
2022/06/19 02:47:35;;;;;;;12.82;3.22;;;15.80;99.90;;;;;;7400391;19;20022;-85
2022/06/19 02:50:06;;;;;;;14.70;2.50;;;15.60;99.90;;;;;;7400775;19;20018;-86
2022/06/19 02:52:36;;;;;;;17.63;2.53;;;15.70;99.90;;;;;;7400277;19;20011;-87
2022/06/19 02:55:06;;;;;;;12.10;2.10;;;15.70;99.90;;;;;;7399707;19;20479;-86
2022/06/19 02:57:38;;;;;;;16.08;2.55;;;15.60;99.90;;;;;;7398572;19;20483;-86
2022/06/19 03:00:11;;;;;;;18.42;2.65;;;15.60;99.90;;;;;;7403309;19;20018;-86
2022/06/19 03:02:41;;;;;;;15.40;2.75;;;15.70;99.90;;;;;;7402409;19;20010;-86
2022/06/19 03:05:19;;;;;;;13.90;2.78;;;15.70;99.90;;;;;;7399920;19;20070;-86
2022/06/19 03:07:48;;;;;;;11.70;2.25;;;15.70;99.90;;;;;;7400729;19;20047;-86
2022/06/19 03:10:18;;;;;;;14.85;2.22;;;15.80;99.90;;;;;;7403804;19;20035;-83
2022/06/19 03:12:50;;;;;;;13.88;2.55;;;15.80;99.90;;;;;;7398236;19;20010;-86
2022/06/19 03:15:21;;;;;;;10.30;2.17;;;15.50;99.90;;;;;;7400252;19;20003;-87
2022/06/19 03:17:50;;;;;;;8.15;2.13;;;15.60;99.90;;;;;;7398584;19;20526;-87
2022/06/19 03:20:22;;;;;;;11.30;2.47;;;15.70;99.90;;;;;;7402227;19;20393;-87
2022/06/19 03:22:52;;;;;;;19.60;2.88;;;15.80;99.90;;;;;;7399415;19;20044;-86
2022/06/19 03:25:22;;;;;;;9.90;2.10;;;15.30;99.90;;;;;;7399902;19;20011;-86
2022/06/19 03:27:54;;;;;;;13.55;2.25;;;15.60;99.90;;;;;;7399651;19;20003;-86
2022/06/19 03:30:24;;;;;;;14.18;2.80;;;15.50;99.90;;;;;;7400026;19;20010;-86
2022/06/19 03:32:54;;;;;;;15.75;2.33;;;15.50;99.90;;;;;;7399658;19;20503;-86
2022/06/19 03:35:23;;;;;;;11.43;2.33;;;15.50;99.90;;;;;;7399550;19;20613;-84
2022/06/19 03:37:53;;;;;;;12.02;2.40;;;15.50;99.90;;;;;;7402611;19;20015;-87
2022/06/19 03:40:22;;;;;;;12.73;3.03;;;15.20;99.90;;;;;;7403200;19;20043;-86
2022/06/19 03:42:55;;;;;;;13.55;2.38;;;15.10;99.90;;;;;;7400962;19;20390;-86
2022/06/19 03:45:25;;;;;;;13.60;2.30;;;15.00;99.90;;;;;;7399274;19;20010;-86
2022/06/19 03:47:54;;;;;;;12.77;2.45;;;15.20;99.90;;;;;;7399767;19;20014;-86
2022/06/19 03:50:25;;;;;;;11.90;2.00;;;15.10;99.90;;;;;;7399004;19;20011;-86
2022/06/19 03:52:55;;;;;;;8.07;2.10;;;15.10;99.90;;;;;;7402641;19;20039;-87
2022/06/19 03:55:24;;;;;;;10.23;2.10;;;15.10;99.90;;;;;;7404277;19;20015;-87
2022/06/19 03:57:56;;;;;;;15.80;2.55;;;15.20;99.90;;;;;;7397542;19;20010;-87
2022/06/19 04:00:26;;;;;;;9.05;2.00;;;15.30;99.90;;;;;;7403372;19;20043;-86
2022/06/19 04:02:55;;;;;;;12.90;2.42;;;15.20;99.90;;;;;;7404086;19;20006;-87
2022/06/19 04:05:25;;;;;;;12.10;2.25;;;15.10;99.90;;;;;;7399095;19;20026;-86
2022/06/19 04:07:54;;;;;;;10.80;1.98;;;15.10;99.90;;;;;;7399450;19;20018;-87
2022/06/19 04:10:24;;;;;;;7.45;2.13;;;15.20;99.90;;;;;;7399939;19;20023;-86
2022/06/19 04:12:57;;;;;;;7.55;1.85;;;15.00;99.90;;;;;;7396979;19;20386;-87
2022/06/19 04:15:26;;;;;;;12.40;2.08;;;15.20;99.90;;;;;;7398722;19;20043;-87
2022/06/19 04:17:56;;;;;;;8.50;2.03;;;15.30;99.90;;;;;;7397931;19;20055;-87
2022/06/19 04:20:29;;;;;;;10.90;2.05;;;15.20;99.90;;;;;;7396466;19;20043;-86
2022/06/19 04:22:58;;;;;;;11.75;2.25;;;15.10;99.90;;;;;;7398430;19;20006;-86
2022/06/19 04:25:28;;;;;;;11.38;2.28;;;15.00;99.90;;;;;;7398172;19;20055;-85
2022/06/19 04:28:00;;;;;;;10.90;2.10;;;15.10;99.90;;;;;;7399743;19;20015;-85
2022/06/19 04:30:30;;;;;;;9.55;1.90;;;15.00;99.90;;;;;;7398272;19;20011;-86
2022/06/19 04:32:59;;;;;;;10.80;2.20;;;15.00;99.90;;;;;;7397900;19;20047;-85
2022/06/19 04:35:29;;;;;;;12.18;2.22;;;15.00;99.90;;;;;;7398521;19;20007;-87
2022/06/19 04:37:59;;;;;;;12.95;2.72;;;14.90;99.90;;;;;;7397487;19;20011;-86
2022/06/19 04:40:29;;;;;;;9.77;1.92;;;15.30;99.90;;;;;;7401006;19;20044;-86
2022/06/19 04:43:01;;;;;;;11.13;2.33;;;14.70;99.90;;;;;;7397591;19;20006;-87
2022/06/19 04:45:31;;;;;;;10.10;1.70;;;14.80;99.90;;;;;;7399670;19;20039;-86
2022/06/19 04:48:00;;;;;;;11.10;2.17;;;14.70;99.90;;;;;;7396945;19;20014;-85
2022/06/19 04:50:30;;;;;;;10.32;2.45;;;14.90;99.90;;;;;;7399332;19;20014;-86
2022/06/19 04:53:00;;;;;;;10.32;2.42;;;14.90;99.90;;;;;;7397088;19;20010;-86
2022/06/19 04:55:30;;;;;;;7.57;1.90;;;14.80;99.90;;;;;;7397165;19;20413;-85
2022/06/19 04:58:07;;;;;;;10.90;2.33;;;14.80;99.90;;;;;;7396353;19;20014;-86
2022/06/19 05:00:36;;;;;;;13.95;2.28;;;14.80;99.90;;;;;;7396505;19;20007;-86
2022/06/19 05:03:06;;;;;;;13.85;2.72;;;14.70;99.90;;;;;;7400771;19;20031;-86
2022/06/19 05:05:36;;;;;;;15.75;2.42;;;14.90;99.90;;;;;;7397146;19;20010;-86
2022/06/19 05:08:06;;;;;;;10.35;2.38;;;14.80;99.90;;;;;;7396292;19;20010;-85
2022/06/19 05:10:41;;;;;;;8.73;2.10;;;15.00;99.90;;;;;;7397691;19;20040;-87
2022/06/19 05:13:18;;;;;;;11.88;1.95;;;15.00;99.90;;;;;;7394401;19;20536;-87
2022/06/19 05:15:48;;;;;;;9.13;2.13;;;14.90;99.90;;;;;;7395755;19;20007;-85
2022/06/19 05:18:18;;;;;;;10.75;2.13;;;15.00;99.90;;;;;;7395392;19;20036;-86
2022/06/19 05:20:49;;;;;;;12.10;2.28;;;15.00;99.90;;;;;;7395557;19;20011;-86
2022/06/19 05:23:18;;;;;;;11.43;2.00;;;14.90;99.90;;;;;;7395330;19;20051;-87
2022/06/19 05:25:48;;;;;;;11.77;2.10;;;15.00;99.90;;;;;;7392934;19;20402;-86
2022/06/19 05:28:20;;;;;;;6.65;1.83;;;14.90;99.90;;;;;;7394549;19;20014;-86
2022/06/19 05:30:49;;;;;;;10.95;1.85;;;15.00;99.90;;;;;;7394728;19;20489;-84
2022/06/19 05:33:19;;;;;;;13.18;2.50;;;15.00;99.90;;;;;;7394700;19;20341;-85
2022/06/19 05:35:49;;;;;;;11.52;2.30;;;14.90;99.90;;;;;;7396065;19;20047;-85
2022/06/19 05:38:18;;;;;;;9.52;2.03;;;15.00;99.90;;;;;;7395690;19;20011;-87
2022/06/19 05:40:48;;;;;;;10.20;2.60;;;15.00;99.90;;;;;;7395229;19;20043;-86
2022/06/19 05:43:20;;;;;;;7.72;1.67;;;14.90;99.90;;;;;;7394859;19;20022;-86
2022/06/19 05:45:54;;;;;;;10.25;1.92;;;14.90;99.90;;;;;;7393144;19;20039;-86
2022/06/19 05:48:23;;;;;;;11.23;2.03;;;14.90;99.90;;;;;;7395171;19;20011;-85
2022/06/19 05:51:00;;;;;;;9.43;2.10;;;15.60;99.90;;;;;;7393857;19;20011;-86
2022/06/19 05:53:31;;;;;;;10.63;2.35;;;14.90;99.90;;;;;;7395024;19;20018;-86
2022/06/19 05:56:01;;;;;;;14.98;2.65;;;14.90;99.90;;;;;;7393217;19;20011;-87
2022/06/19 05:58:34;;;;;;;11.95;2.60;;;14.90;99.90;;;;;;7393626;19;20040;-85
2022/06/19 06:01:05;;;;;;;9.45;2.95;;;15.00;99.90;;;;;;7393960;19;20010;-87
2022/06/19 06:03:35;;;;;;;12.00;2.72;;;15.00;99.90;;;;;;7394182;19;20043;-86
2022/06/19 06:06:06;;;;;;;10.02;2.10;;;15.10;99.90;;;;;;7394200;19;20006;-86
2022/06/19 06:08:38;;;;;;;13.75;2.45;;;15.00;99.90;;;;;;7394254;19;20015;-86
2022/06/19 06:11:08;;;;;;;11.07;2.22;;;14.90;99.90;;;;;;7398264;19;20500;-86
2022/06/19 06:13:41;;;;;;;9.05;2.35;;;14.80;99.90;;;;;;7394045;19;20007;-86
2022/06/19 06:16:12;;;;;;;10.50;2.40;;;14.80;99.90;;;;;;7395042;19;20345;-86
2022/06/19 06:18:42;;;;;;;14.32;2.65;;;14.90;99.90;;;;;;7396138;19;20403;-86
2022/06/19 06:21:15;;;;;;;11.52;2.30;;;15.30;99.90;;;;;;7394956;19;20011;-85
2022/06/19 06:23:45;;;;;;;16.10;2.58;;;14.60;99.90;;;;;;7394365;19;20369;-86
2022/06/19 06:26:17;;;;;;;9.18;2.30;;;14.80;99.90;;;;;;7395630;19;20040;-86
2022/06/19 06:28:51;;;;;;;8.50;2.20;;;15.00;99.90;;;;;;7392900;19;20013;-86
2022/06/19 06:31:21;;;;;;;12.68;2.53;;;14.90;99.90;;;;;;7393658;19;20014;-87
2022/06/19 06:33:51;;;;;;;12.32;2.30;;;14.90;99.90;;;;;;7393282;19;20022;-86
2022/06/19 06:36:21;;;;;;;10.10;2.50;;;14.90;99.90;;;;;;7396027;19;20122;-86
2022/06/19 06:38:51;;;;;;;11.45;2.38;;;14.80;99.90;;;;;;7399248;19;20014;-86
2022/06/19 06:41:20;;;;;;;12.85;2.67;;;14.80;99.90;;;;;;7400974;19;20079;-85
2022/06/19 06:43:52;;;;;;;11.82;2.40;;;14.70;99.90;;;;;;7400433;19;20039;-86
2022/06/19 06:46:25;;;;;;;12.70;2.42;;;14.80;99.90;;;;;;7397541;19;20047;-86
2022/06/19 06:48:59;;;;;;;12.43;2.53;;;14.90;99.90;;;;;;7399970;19;20010;-86
2022/06/19 06:51:30;;;;;;;11.55;2.83;;;14.90;99.90;;;;;;7400586;19;20455;-87
2022/06/19 06:54:01;;;;;;;12.32;2.67;;;14.90;99.90;;;;;;7398769;19;20014;-86
2022/06/19 06:56:33;;;;;;;14.20;2.88;;;14.90;99.90;;;;;;7398804;19;20063;-87
2022/06/19 06:59:06;;;;;;;19.67;2.70;;;14.80;99.90;;;;;;7397526;19;20015;-86
2022/06/19 07:01:36;;;;;;;10.95;2.15;;;14.90;99.90;;;;;;7401474;19;20641;-86
2022/06/19 07:04:05;;;;;;;10.75;2.10;;;15.00;99.90;;;;;;7398625;19;20014;-86
2022/06/19 07:06:35;;;;;;;10.20;2.40;;;15.10;99.90;;;;;;7398823;19;20010;-86
2022/06/19 07:09:07;;;;;;;19.13;2.15;;;14.90;99.90;;;;;;7398236;19;20056;-87
2022/06/19 07:11:40;;;;;;;12.25;2.78;;;14.80;99.90;;;;;;7396992;19;20015;-86
2022/06/19 07:14:13;;;;;;;12.98;3.00;;;14.80;99.90;;;;;;7397682;19;20010;-86
2022/06/19 07:16:43;;;;;;;14.35;2.72;;;15.30;99.90;;;;;;7398704;19;20015;-86
2022/06/19 07:19:13;;;;;;;11.52;2.38;;;15.00;99.90;;;;;;7402225;19;20383;-86
2022/06/19 07:21:43;;;;;;;14.57;2.78;;;15.20;99.90;;;;;;7398523;19;20010;-85
2022/06/19 07:24:13;;;;;;;11.02;2.45;;;15.30;99.90;;;;;;7400755;19;20025;-86
2022/06/19 07:26:42;;;;;;;12.00;2.17;;;15.30;99.90;;;;;;7401355;19;20014;-87
2022/06/19 07:29:14;;;;;;;14.68;2.78;;;15.10;99.90;;;;;;7397690;19;20407;-86
2022/06/19 07:31:44;;;;;;;11.63;2.50;;;14.70;99.90;;;;;;7398379;19;20014;-86
2022/06/19 07:34:14;;;;;;;9.75;2.20;;;15.10;99.90;;;;;;7397690;19;20011;-86
2022/06/19 07:36:43;;;;;;;13.13;2.08;;;15.00;99.90;;;;;;7397237;19;20126;-86
2022/06/19 07:39:13;;;;;;;19.17;2.45;;;15.30;99.90;;;;;;7398380;19;20011;-87
2022/06/19 07:41:42;;;;;;;15.25;2.55;;;15.00;99.90;;;;;;7409316;19;20031;-87
2022/06/19 07:44:15;;;;;;;13.07;2.50;;;15.00;99.90;;;;;;7399756;19;20039;-87
2022/06/19 07:52:09;;;;;;;10.02;1.88;;;15.30;99.90;;;;;;7401326;19;20002;-87
2022/06/19 07:54:38;;;;;;;11.80;2.30;;;15.20;99.90;;;;;;7401925;19;20010;-86
2022/06/19 07:57:08;;;;;;;10.25;2.03;;;15.20;99.90;;;;;;7400036;19;20030;-87
2022/06/19 07:59:40;;;;;;;12.05;2.47;;;15.20;99.90;;;;;;7398243;19;20021;-87
2022/06/19 08:02:10;;;;;;;9.13;1.80;;;15.20;99.90;;;;;;7398448;19;20046;-87
2022/06/19 08:04:40;;;;;;;12.40;2.17;;;15.20;99.90;;;;;;7398512;19;20014;-87
2022/06/19 08:07:09;;;;;;;11.68;2.05;;;15.10;99.90;;;;;;7398537;19;20011;-87
2022/06/19 08:09:39;;;;;;;14.32;2.53;;;15.10;99.90;;;;;;7401068;19;20036;-87
2022/06/19 08:12:10;;;;;;;13.10;2.17;;;15.30;99.90;;;;;;7397539;19;20018;-87
2022/06/19 08:14:42;;;;;;;12.55;2.33;;;15.20;99.90;;;;;;7399733;19;20044;-87
2022/06/19 08:17:12;;;;;;;13.15;3.20;;;15.00;99.90;;;;;;7399261;19;20011;-87
2022/06/19 08:19:41;;;;;;;10.15;2.25;;;15.00;99.90;;;;;;7399323;19;20110;-86
2022/06/19 08:22:11;;;;;;;13.02;2.42;;;15.10;99.90;;;;;;7401757;19;20015;-86
2022/06/19 08:24:41;;;;;;;12.40;2.30;;;15.00;99.90;;;;;;7404127;19;20015;-87
2022/06/19 08:27:10;;;;;;;9.65;2.28;;;15.10;99.90;;;;;;7407648;19;20453;-86
2022/06/19 08:29:43;;;;;;;12.45;2.55;;;15.50;99.90;;;;;;7401215;19;20491;-87
2022/06/19 08:32:12;;;;;;;11.82;2.90;;;15.10;99.90;;;;;;7397853;19;20014;-86
2022/06/19 08:34:42;;;;;;;10.43;2.35;;;15.30;99.90;;;;;;7397387;19;20014;-86
2022/06/19 08:37:13;;;;;;;13.13;2.55;;;15.20;99.90;;;;;;7396215;19;20043;-86
2022/06/19 08:39:43;;;;;;;12.43;2.60;;;15.10;99.90;;;;;;7394783;19;20353;-86
2022/06/19 08:42:37;;;;;;;11.75;2.20;;;15.10;99.90;;;;;;7396112;19;20002;-87
2022/06/19 08:45:31;;;;;;;11.10;2.05;;;14.90;99.90;;;;;;7398414;19;20130;-86
2022/06/19 08:48:29;;;;;;;10.95;2.20;;;15.10;99.90;;;;;;7396045;19;20015;-86
2022/06/19 08:51:03;;;;;;;8.98;2.00;;;15.20;99.90;;;;;;7395619;19;20032;-87
2022/06/19 08:54:02;;;;;;;9.60;1.77;;;14.80;99.90;;;;;;7395242;19;20014;-86
2022/06/19 08:56:38;;;;;;;8.48;1.88;;;15.20;99.90;;;;;;7394858;19;20716;-86
2022/06/19 08:59:17;;;;;;;13.18;2.30;;;14.90;99.90;;;;;;7394041;19;20475;-86
2022/06/19 09:01:58;;;;;;;8.75;1.83;;;15.20;99.90;;;;;;7400591;19;20018;-86
2022/06/19 09:07:39;;;;;;;9.48;2.20;;;15.30;99.90;;;;;;7395319;19;20015;-86
2022/06/19 09:10:24;;;;;;;11.27;2.40;;;15.10;99.90;;;;;;7394517;19;20014;-86
2022/06/19 09:13:04;;;;;;;15.40;2.35;;;15.10;99.90;;;;;;7395673;19;20014;-85
2022/06/19 09:15:43;;;;;;;12.63;2.38;;;15.10;99.90;;;;;;7394815;19;20010;-85
2022/06/19 09:18:23;;;;;;;10.88;3.28;;;15.10;99.90;;;;;;7399144;19;20007;-86
2022/06/19 09:21:01;;;;;;;10.90;2.63;;;14.90;99.90;;;;;;7393567;19;20018;-85
2022/06/19 09:23:52;;;;;;;10.63;3.58;;;14.90;99.90;;;;;;7395186;19;20414;-86
2022/06/19 09:26:28;;;;;;;10.38;2.95;;;15.00;99.90;;;;;;7399807;19;20022;-86
2022/06/19 09:29:04;;;;;;;13.63;2.63;;;15.00;99.90;;;;;;7394784;19;20014;-87
2022/06/19 09:31:38;;;;;;;8.85;2.30;;;15.50;99.90;;;;;;7393993;19;20018;-85
2022/06/19 09:34:14;;;;;;;14.10;2.83;;;15.10;99.90;;;;;;7396383;19;20019;-86
2022/06/19 09:36:49;;;;;;;8.00;2.38;;;15.10;99.90;;;;;;7394070;19;20018;-85
2022/06/19 09:39:23;;;;;;;8.63;2.20;;;15.00;99.90;;;;;;7394104;19;20014;-85
2022/06/19 09:41:59;;;;;;;7.20;2.05;;;15.10;99.90;;;;;;7391889;19;20350;-86
2022/06/19 09:44:36;;;;;;;4.93;1.48;;;15.10;99.90;;;;;;7398193;19;20018;-85
2022/06/19 09:47:11;;;;;;;9.07;1.85;;;15.30;99.90;;;;;;7391576;19;20018;-86
2022/06/19 09:49:48;;;;;;;5.82;1.70;;;15.30;99.90;;;;;;7393301;19;20018;-85
2022/06/19 09:52:23;;;;;;;5.25;1.42;;;15.30;99.90;;;;;;7397441;19;20023;-86
2022/06/19 09:54:57;;;;;;;9.55;1.95;;;15.70;99.90;;;;;;7392713;19;20044;-85
2022/06/19 09:57:32;;;;;;;6.00;1.52;;;15.50;99.90;;;;;;7392862;19;20011;-85
2022/06/19 10:00:06;;;;;;;6.70;1.65;;;15.50;99.90;;;;;;7392795;19;20509;-85
2022/06/19 10:02:44;;;;;;;5.18;1.50;;;15.60;99.90;;;;;;7390182;19;20017;-85
2022/06/19 10:05:23;;;;;;;9.65;1.67;;;15.50;99.90;;;;;;7392365;19;20048;-86
2022/06/19 10:07:56;;;;;;;8.20;1.75;;;15.50;99.90;;;;;;7394026;19;20508;-86
2022/06/19 10:10:32;;;;;;;7.90;1.83;;;15.50;99.90;;;;;;7392309;19;20366;-86
2022/06/19 10:13:09;;;;;;;10.02;1.60;;;15.30;99.90;;;;;;7397196;19;20015;-87
2022/06/19 10:15:39;;;;;;;8.55;1.90;;;15.80;99.90;;;;;;7398967;19;20027;-86
2022/06/19 10:18:16;;;;;;;7.38;1.65;;;15.60;99.90;;;;;;7399696;19;20014;-86
2022/06/19 10:20:57;;;;;;;6.15;1.55;;;15.50;99.90;;;;;;7400747;19;20043;-86
2022/06/19 10:23:40;;;;;;;5.18;1.33;;;15.70;99.90;;;;;;7400994;19;20034;-86
2022/06/19 10:26:27;;;;;;;5.95;1.50;;;15.80;99.90;;;;;;7405159;19;20019;-86
2022/06/19 10:29:24;;;;;;;8.18;1.52;;;15.90;99.90;;;;;;7399878;19;20039;-86
2022/06/19 10:32:19;;;;;;;5.38;1.20;;;15.70;99.90;;;;;;7399301;19;20023;-86
2022/06/19 10:35:00;;;;;;;5.40;1.23;;;15.80;99.90;;;;;;7399539;19;20039;-86
2022/06/19 10:37:38;;;;;;;6.40;1.30;;;16.10;99.90;;;;;;7398565;19;20014;-85
2022/06/19 10:40:19;;;;;;;6.00;1.20;;;15.90;99.90;;;;;;7399243;19;20019;-86
2022/06/19 10:43:11;;;;;;;5.78;1.30;;;15.90;99.90;;;;;;7399688;19;20011;-86
2022/06/19 10:45:46;;;;;;;5.25;1.30;;;16.10;99.90;;;;;;7397584;19;20010;-86
2022/06/19 10:48:29;;;;;;;2.13;0.90;;;16.10;99.90;;;;;;7398794;19;20036;-86
2022/06/19 10:51:26;;;;;;;4.93;1.30;;;16.10;99.90;;;;;;7398246;19;20011;-86
2022/06/19 10:54:22;;;;;;;4.63;1.30;;;16.20;99.90;;;;;;7398355;19;20365;-84
2022/06/19 10:57:06;;;;;;;4.93;1.30;;;16.10;99.90;;;;;;7397817;19;20036;-85
2022/06/19 10:59:35;;;;;;;4.40;1.17;;;16.60;99.90;;;;;;7401440;19;20019;-85
2022/06/19 11:05:01;;;;;;;3.92;1.27;;;16.10;99.90;;;;;;7397817;19;20007;-85
2022/06/19 11:07:32;;;;;;;3.80;1.10;;;16.10;99.90;;;;;;7399321;19;20021;-85
2022/06/19 11:10:09;;;;;;;5.18;1.42;;;16.30;99.90;;;;;;7399444;19;20505;-85
2022/06/19 11:12:42;;;;;;;4.35;1.35;;;16.20;99.90;;;;;;7399509;19;20029;-85
2022/06/19 11:15:13;;;;;;;6.43;1.30;;;16.30;99.90;;;;;;7402551;19;20013;-85
2022/06/19 11:17:44;;;;;;;7.47;1.58;;;16.30;99.90;;;;;;7397364;19;20010;-85
2022/06/19 11:20:26;;;;;;;3.92;1.40;;;16.30;99.90;;;;;;7397712;19;20030;-85
2022/06/19 11:23:02;;;;;;;2.85;1.10;;;16.30;99.90;;;;;;7393090;19;20022;-85
2022/06/19 11:25:37;;;;;;;3.38;1.00;;;16.10;99.90;;;;;;7401208;19;20014;-85
2022/06/19 11:28:11;;;;;;;5.63;2.00;;;16.20;99.90;;;;;;7397276;19;20132;-86
2022/06/19 11:30:42;;;;;;;4.90;2.17;;;16.20;99.90;;;;;;7397195;19;20018;-85
2022/06/19 11:33:14;;;;;;;5.35;2.20;;;16.20;99.90;;;;;;7399711;19;20044;-86
2022/06/19 11:35:47;;;;;;;23.70;10.82;;;16.30;99.90;;;;;;7396919;19;20044;-86
2022/06/19 11:38:33;;;;;;;3.75;1.38;;;16.20;99.90;;;;;;7397135;19;20026;-85
2022/06/19 11:41:18;;;;;;;4.28;2.08;;;16.30;99.90;;;;;;7399859;19;20014;-85
2022/06/19 11:43:47;;;;;;;9.23;4.75;;;16.10;99.90;;;;;;7396949;19;20077;-85
2022/06/19 11:46:24;;;;;;;4.65;1.33;;;16.10;99.90;;;;;;7395164;19;20014;-85
2022/06/19 11:48:53;;;;;;;7.45;5.60;;;15.90;99.90;;;;;;7396387;19;20018;-85
2022/06/19 11:51:25;;;;;;;10.98;6.13;;;15.50;99.90;;;;;;7401208;19;20010;-85
2022/06/19 11:53:58;;;;;;;5.53;1.90;;;15.80;99.90;;;;;;7396321;19;20025;-84
2022/06/19 11:56:35;;;;;;;5.45;2.60;;;15.70;99.90;;;;;;7396278;19;20022;-84
2022/06/19 11:59:08;;;;;;;6.00;1.52;;;15.80;99.90;;;;;;7396228;19;20052;-84
2022/06/19 12:01:40;;;;;;;5.03;1.83;;;15.90;99.90;;;;;;7395386;19;20014;-84
2022/06/19 12:04:26;;;;;;;6.65;3.45;;;15.90;99.90;;;;;;7395946;19;20019;-85
2022/06/19 12:07:00;;;;;;;5.72;2.25;;;15.90;99.90;;;;;;7397780;19;20022;-84
2022/06/19 12:09:34;;;;;;;2.88;1.20;;;16.00;99.90;;;;;;7395868;19;20043;-84
2022/06/19 12:12:10;;;;;;;3.17;1.60;;;15.60;99.90;;;;;;7394609;19;20036;-84
2022/06/19 12:14:55;;;;;;;5.47;1.70;;;16.00;99.90;;;;;;7398526;19;20040;-84
2022/06/19 12:17:27;;;;;;;3.58;1.73;;;15.80;99.90;;;;;;7395317;19;20043;-84
2022/06/19 12:20:00;;;;;;;3.08;1.05;;;15.80;99.90;;;;;;7395798;19;20374;-84
2022/06/19 12:22:38;;;;;;;1.90;1.00;;;15.90;99.90;;;;;;7394275;19;20026;-84
2022/06/19 12:25:16;;;;;;;2.92;0.90;;;15.80;99.90;;;;;;7399911;19;20022;-85
2022/06/19 12:27:55;;;;;;;4.35;2.10;;;15.70;99.90;;;;;;7399367;19;20040;-85
2022/06/19 12:30:32;;;;;;;2.30;1.10;;;15.80;99.90;;;;;;7397222;19;20516;-88
2022/06/19 12:33:04;;;;;;;3.33;1.00;;;15.80;99.90;;;;;;7397963;19;20040;-86
2022/06/19 12:35:38;;;;;;;6.07;1.35;;;15.70;99.90;;;;;;7395985;19;20018;-84
2022/06/19 12:38:14;;;;;;;4.85;1.33;;;16.30;99.90;;;;;;7394927;19;20047;-84
2022/06/19 12:41:00;;;;;;;3.72;1.25;;;15.80;99.90;;;;;;7396254;19;20026;-84
2022/06/19 12:43:45;;;;;;;4.60;1.73;;;15.80;99.90;;;;;;7393247;19;20370;-84
2022/06/19 12:46:27;;;;;;;2.45;1.02;;;15.70;99.90;;;;;;7393363;19;20017;-84
2022/06/19 12:49:05;;;;;;;2.40;1.42;;;15.70;99.90;;;;;;7394156;19;20014;-84
2022/06/19 12:51:46;;;;;;;5.70;1.50;;;15.80;99.90;;;;;;7396538;19;20006;-86
2022/06/19 12:54:48;;;;;;;4.50;1.63;;;15.80;99.90;;;;;;7395863;19;20014;-85
2022/06/19 12:57:48;;;;;;;2.80;1.50;;;16.00;99.90;;;;;;7394581;19;20014;-85
2022/06/19 13:00:38;;;;;;;4.00;1.80;;;16.00;99.90;;;;;;7394227;19;20011;-85
2022/06/19 13:03:36;;;;;;;3.47;1.33;;;16.10;99.90;;;;;;7392817;19;20573;-86
2022/06/19 13:06:21;;;;;;;3.78;1.80;;;16.10;99.90;;;;;;7391620;19;20043;-85
2022/06/19 13:09:00;;;;;;;4.63;3.35;;;16.00;99.90;;;;;;7393866;19;20018;-85
2022/06/19 13:11:40;;;;;;;3.63;1.20;;;15.90;99.90;;;;;;7393402;19;20043;-86
2022/06/19 13:14:35;;;;;;;3.22;1.15;;;15.90;99.90;;;;;;7393756;19;20484;-86
2022/06/19 13:17:15;;;;;;;5.88;1.45;;;15.90;99.90;;;;;;7393341;19;20018;-85
2022/06/19 13:19:54;;;;;;;4.72;1.20;;;15.60;99.90;;;;;;7393856;19;20022;-86
2022/06/19 13:22:39;;;;;;;4.82;1.20;;;15.70;99.90;;;;;;7393435;19;20010;-85
2022/06/19 13:25:20;;;;;;;5.15;1.25;;;14.80;99.90;;;;;;7393997;19;20517;-86
2022/06/19 13:28:05;;;;;;;4.38;1.08;;;15.80;99.90;;;;;;7394902;19;20039;-87
2022/06/19 13:30:45;;;;;;;2.83;1.10;;;15.70;99.90;;;;;;7396879;19;20475;-86